Time;durP1;ratioP1;P1;durP2;ratioP2;P2;SDS_P1;SDS_P2;PMS_P1;PMS_P2;Temp;Humidity;BMP_temperature;BMP_pressure;BME280_temperature;BME280_humidity;BME280_pressure;Samples;Min_cycle;Max_cycle;Signal;HPM_P1;HPM_P2
2021/12/31 00:00:37;;;;;;;10.47;8.40;;;7.20;97.40;;;7.13;68.63;95563.63;4985315;28;20507;-55
2021/12/31 00:03:04;;;;;;;11.93;8.47;;;7.30;97.40;;;7.14;68.94;95565.31;4988169;28;20864;-60
2021/12/31 00:05:31;;;;;;;10.40;8.23;;;7.30;97.40;;;7.13;69.13;95558.38;4990409;28;20976;-62
2021/12/31 00:07:58;;;;;;;17.37;9.30;;;7.30;97.50;;;7.10;68.78;95566.44;4990829;28;20466;-61
2021/12/31 00:10:27;;;;;;;12.20;7.97;;;7.20;97.30;;;7.09;68.84;95567.34;4990767;28;20474;-55
2021/12/31 00:12:56;;;;;;;14.43;9.30;;;7.20;97.30;;;7.09;69.01;95577.81;4990788;28;20459;-56
2021/12/31 00:15:23;;;;;;;13.23;9.60;;;7.20;97.40;;;7.10;69.04;95584.75;4983897;28;20546;-54
2021/12/31 00:17:52;;;;;;;12.93;8.33;;;7.20;97.40;;;7.09;68.81;95588.28;4987207;28;20442;-63
2021/12/31 00:20:23;;;;;;;12.27;9.40;;;7.20;97.50;;;7.10;69.48;95587.34;4987687;28;20471;-62
2021/12/31 00:23:02;;;;;;;12.73;9.30;;;7.30;97.50;;;7.09;68.55;95585.66;4986589;28;20521;-61
2021/12/31 00:25:30;;;;;;;11.23;8.53;;;7.20;97.30;;;7.04;68.92;95581.69;4987139;28;20522;-55
2021/12/31 00:27:57;;;;;;;14.80;9.90;;;7.20;97.30;;;7.00;69.16;95579.28;4985176;28;20986;-64
2021/12/31 00:30:24;;;;;;;16.63;10.00;;;7.10;97.30;;;6.98;69.21;95580.31;4990676;28;20482;-54
2021/12/31 00:32:53;;;;;;;14.80;10.00;;;7.10;97.40;;;6.98;69.26;95578.53;4988287;28;20454;-62
2021/12/31 00:35:20;;;;;;;14.50;10.00;;;7.10;97.40;;;6.98;68.84;95586.38;4989931;28;20474;-57
2021/12/31 00:37:47;;;;;;;17.33;11.40;;;7.10;97.50;;;7.00;69.03;95588.88;4989830;28;20516;-62
2021/12/31 00:40:17;;;;;;;16.13;11.73;;;7.20;97.50;;;7.02;69.21;95592.25;4987221;28;20516;-62
2021/12/31 00:42:44;;;;;;;19.67;13.10;;;7.10;97.50;;;7.00;68.88;95586.28;4986046;28;20505;-62
2021/12/31 00:45:13;;;;;;;19.60;12.83;;;7.20;97.60;;;7.00;69.13;95581.03;4987323;28;21049;-63
2021/12/31 00:47:41;;;;;;;18.40;12.00;;;7.10;97.50;;;7.00;68.93;95567.97;4985918;28;20462;-55
2021/12/31 00:50:10;;;;;;;17.20;11.50;;;7.10;97.50;;;7.02;69.50;95562.63;4990124;28;20825;-55
2021/12/31 00:52:38;;;;;;;20.17;12.63;;;7.10;97.60;;;7.02;69.33;95560.88;4989144;28;20814;-61
2021/12/31 00:55:06;;;;;;;17.90;11.57;;;7.20;97.50;;;7.03;69.29;95559.09;4989410;28;21032;-61
2021/12/31 00:57:34;;;;;;;16.83;12.40;;;7.20;97.50;;;7.02;69.11;95560.00;4990052;28;20877;-62
2021/12/31 01:00:01;;;;;;;16.07;11.37;;;7.10;97.40;;;7.03;68.60;95567.75;4987352;28;20490;-55
2021/12/31 01:02:29;;;;;;;18.07;12.20;;;7.10;97.40;;;7.05;68.91;95572.91;4989077;28;20586;-54
2021/12/31 01:04:56;;;;;;;15.83;11.13;;;7.20;97.50;;;7.05;69.27;95565.91;4989854;28;20502;-56
2021/12/31 01:07:27;;;;;;;13.47;8.77;;;7.20;97.40;;;7.08;68.59;95559.63;4987511;28;20521;-60
2021/12/31 01:09:56;;;;;;;11.13;8.60;;;7.20;97.30;;;7.06;68.58;95559.72;4992506;28;20466;-60
2021/12/31 01:12:25;;;;;;;10.00;7.00;;;7.20;97.10;;;7.06;68.35;95567.56;4990018;28;20476;-62
2021/12/31 01:14:57;;;;;;;9.97;7.20;;;7.20;97.10;;;7.06;68.11;95570.19;4990102;28;20550;-58
2021/12/31 01:17:40;;;;;;;9.60;6.30;;;7.20;96.90;;;7.04;68.25;95579.09;4990274;28;20443;-59
2021/12/31 01:20:09;;;;;;;8.70;6.70;;;7.20;96.80;;;7.00;68.45;95565.34;4988751;28;20486;-63
2021/12/31 01:22:38;;;;;;;8.63;6.37;;;7.20;96.80;;;6.98;67.74;95564.63;4989448;28;21150;-55
2021/12/31 01:25:06;;;;;;;10.10;7.17;;;7.10;96.70;;;6.98;68.04;95582.94;4991352;28;21317;-55
2021/12/31 01:27:34;;;;;;;9.00;6.20;;;7.10;96.80;;;6.96;68.31;95595.28;4988567;28;20473;-55
2021/12/31 01:30:01;;;;;;;8.80;6.83;;;7.10;96.70;;;6.97;68.21;95576.88;4990870;28;20971;-62
2021/12/31 01:32:30;;;;;;;8.00;5.90;;;7.10;96.70;;;6.97;68.25;95579.47;4990370;28;20459;-57
2021/12/31 01:34:57;;;;;;;8.27;6.17;;;7.10;96.80;;;6.96;68.32;95577.81;4989320;28;20578;-55
2021/12/31 01:37:25;;;;;;;9.50;6.93;;;7.10;96.80;;;6.97;68.53;95581.25;4989369;28;20458;-56
2021/12/31 01:39:54;;;;;;;8.33;6.00;;;7.10;96.70;;;6.98;67.70;95580.31;4989271;28;20470;-56
2021/12/31 01:42:28;;;;;;;10.13;7.20;;;7.10;96.70;;;6.94;67.72;95573.59;4988376;28;20500;-61
2021/12/31 01:44:58;;;;;;;10.37;7.20;;;7.10;96.70;;;6.91;68.07;95581.63;4989218;28;20481;-56
2021/12/31 01:47:34;;;;;;;7.63;6.17;;;7.10;96.70;;;6.89;67.89;95591.38;4987135;28;20442;-61
2021/12/31 01:50:06;;;;;;;8.27;5.90;;;7.00;96.50;;;6.82;67.94;95583.94;4990391;28;20541;-62
2021/12/31 01:52:35;;;;;;;7.40;5.87;;;7.00;96.60;;;6.78;68.36;95595.50;4986772;28;21009;-54
2021/12/31 01:55:05;;;;;;;9.37;6.07;;;7.00;96.70;;;6.75;68.16;95600.94;4989165;28;20565;-54
2021/12/31 01:57:33;;;;;;;10.30;6.40;;;6.90;96.70;;;6.73;68.28;95600.19;4987374;28;20447;-61
2021/12/31 02:00:00;;;;;;;7.20;5.63;;;6.90;96.60;;;6.72;67.97;95611.59;4989541;28;20557;-54
2021/12/31 02:02:27;;;;;;;6.17;5.60;;;6.80;96.60;;;6.72;67.81;95603.75;4989307;28;20842;-54
2021/12/31 02:04:55;;;;;;;7.57;5.33;;;6.90;96.70;;;6.69;67.89;95601.31;4989547;28;20566;-61
2021/12/31 02:07:23;;;;;;;7.60;5.87;;;6.80;96.60;;;6.69;67.62;95608.34;4989192;28;20986;-61
2021/12/31 02:09:54;;;;;;;6.30;5.70;;;6.90;96.60;;;6.67;68.05;95597.16;4990195;28;20474;-55
2021/12/31 02:12:23;;;;;;;6.90;5.77;;;6.80;96.50;;;6.67;67.81;95603.22;4990405;28;20456;-55
2021/12/31 02:14:52;;;;;;;8.27;5.67;;;6.90;96.60;;;6.67;68.07;95597.97;4989852;28;20965;-55
2021/12/31 02:17:19;;;;;;;6.00;5.47;;;6.80;96.60;;;6.69;67.90;95603.94;4987767;28;20458;-56
2021/12/31 02:20:03;;;;;;;7.47;6.30;;;6.90;96.70;;;6.71;68.07;95604.69;4988943;28;20482;-61
2021/12/31 02:22:31;;;;;;;17.53;6.93;;;6.90;96.60;;;6.73;68.25;95608.03;4986196;28;20478;-62
2021/12/31 02:25:00;;;;;;;8.50;7.70;;;6.90;96.70;;;6.74;68.47;95607.13;4990490;28;20473;-54
2021/12/31 02:27:27;;;;;;;8.03;6.70;;;6.90;96.70;;;6.77;67.99;95606.06;4987977;28;20463;-62
2021/12/31 02:29:54;;;;;;;10.63;8.27;;;6.90;96.70;;;6.78;68.40;95613.81;4985672;28;20482;-55
2021/12/31 02:32:22;;;;;;;11.17;7.70;;;6.90;96.60;;;6.78;68.49;95598.13;4986588;28;20446;-54
2021/12/31 02:34:49;;;;;;;8.20;7.13;;;6.90;96.60;;;6.80;68.34;95604.09;4988639;28;21043;-57
2021/12/31 02:37:18;;;;;;;9.07;6.50;;;6.90;96.60;;;6.81;67.93;95618.00;4988783;28;20461;-62
2021/12/31 02:39:45;;;;;;;7.83;6.60;;;7.00;96.60;;;6.81;67.86;95618.00;4989796;28;20561;-55
2021/12/31 02:42:12;;;;;;;7.90;6.83;;;7.00;96.50;;;6.81;68.15;95625.84;4991996;28;20469;-61
2021/12/31 02:44:40;;;;;;;7.63;6.73;;;7.00;96.30;;;6.81;67.49;95631.09;4991358;28;20458;-61
2021/12/31 02:47:07;;;;;;;8.80;6.17;;;7.00;96.30;;;6.80;67.31;95625.03;4991256;28;20469;-55
2021/12/31 02:49:38;;;;;;;6.90;6.20;;;7.00;96.30;;;6.77;67.61;95645.28;4991993;28;20469;-55
2021/12/31 02:52:07;;;;;;;8.07;5.90;;;6.90;96.30;;;6.74;67.95;95638.50;4989262;28;20439;-55
2021/12/31 02:54:38;;;;;;;8.53;6.10;;;6.90;96.30;;;6.72;67.37;95637.72;4990908;28;20470;-62
2021/12/31 02:57:05;;;;;;;6.73;6.07;;;6.90;96.30;;;6.69;67.25;95637.91;4991864;28;20474;-54
2021/12/31 02:59:33;;;;;;;7.83;6.30;;;6.90;96.30;;;6.68;67.63;95638.88;4990554;28;20975;-60
2021/12/31 03:02:01;;;;;;;7.23;6.53;;;6.90;96.20;;;6.65;67.17;95639.06;4991858;28;20541;-54
2021/12/31 03:04:28;;;;;;;12.30;5.07;;;6.80;96.00;;;6.60;67.13;95641.97;4989818;28;21011;-61
2021/12/31 03:06:55;;;;;;;6.47;5.37;;;6.80;96.00;;;6.60;67.48;95641.13;4988741;28;20455;-55
2021/12/31 03:09:23;;;;;;;8.20;6.10;;;6.80;96.00;;;6.60;67.14;95638.50;4991825;28;20540;-54
2021/12/31 03:11:54;;;;;;;6.93;5.90;;;6.80;96.00;;;6.60;67.60;95643.72;4991906;28;20454;-61
2021/12/31 03:14:21;;;;;;;6.93;5.73;;;6.80;96.00;;;6.57;67.43;95644.78;4990321;28;20485;-54
2021/12/31 03:16:48;;;;;;;8.97;6.10;;;6.80;95.90;;;6.56;66.77;95642.25;4989291;28;20826;-56
2021/12/31 03:19:16;;;;;;;7.20;5.27;;;6.70;95.80;;;6.53;66.82;95650.28;4991010;28;20454;-55
2021/12/31 03:21:43;;;;;;;6.57;5.50;;;6.70;95.70;;;6.50;67.08;95643.47;4989320;28;21024;-61
2021/12/31 03:24:11;;;;;;;7.57;5.30;;;6.70;95.70;;;6.51;66.65;95660.00;4992081;28;20497;-56
2021/12/31 03:26:38;;;;;;;6.00;5.40;;;6.70;95.70;;;6.50;66.54;95658.31;4991467;28;20910;-62
2021/12/31 03:29:07;;;;;;;8.03;5.63;;;6.70;95.60;;;6.49;66.56;95661.88;4988654;28;20458;-55
2021/12/31 03:31:34;;;;;;;5.17;4.50;;;6.70;95.50;;;6.48;66.31;95666.25;4991756;28;20593;-56
2021/12/31 03:34:01;;;;;;;6.27;5.40;;;6.70;95.40;;;6.45;66.85;95664.66;4988825;28;20516;-56
2021/12/31 03:36:29;;;;;;;6.93;5.00;;;6.60;95.30;;;6.43;66.35;95657.88;4990921;28;20481;-56
2021/12/31 03:38:56;;;;;;;6.43;5.73;;;6.60;95.30;;;6.41;66.92;95660.59;4989546;28;20461;-62
2021/12/31 03:41:23;;;;;;;7.30;5.30;;;6.60;95.40;;;6.38;66.15;95665.13;4990773;28;20477;-56
2021/12/31 03:43:51;;;;;;;8.37;6.07;;;6.60;95.40;;;6.37;66.70;95664.31;4990528;28;20490;-56
2021/12/31 03:46:19;;;;;;;7.53;5.80;;;6.60;95.30;;;6.36;67.10;95670.47;4990192;28;20481;-56
2021/12/31 03:48:47;;;;;;;6.33;5.63;;;6.60;95.40;;;6.35;66.41;95674.03;4991124;28;20521;-61
2021/12/31 03:51:14;;;;;;;9.40;5.23;;;6.50;95.30;;;6.35;66.46;95681.88;4991810;28;20879;-55
2021/12/31 03:53:42;;;;;;;9.40;7.00;;;6.60;95.30;;;6.34;66.72;95690.63;4990111;28;20462;-54
2021/12/31 03:56:10;;;;;;;7.27;6.50;;;6.50;95.30;;;6.34;67.01;95682.78;4990706;28;20662;-61
2021/12/31 03:58:37;;;;;;;7.40;6.63;;;6.50;95.40;;;6.36;66.60;95687.91;4991329;28;20490;-55
2021/12/31 04:01:04;;;;;;;8.97;6.47;;;6.50;95.40;;;6.38;66.70;95689.50;4990497;28;20479;-62
2021/12/31 04:03:33;;;;;;;9.23;6.87;;;6.50;95.50;;;6.39;66.98;95693.78;4990969;28;20497;-56
2021/12/31 04:06:01;;;;;;;9.07;6.30;;;6.60;95.50;;;6.39;66.57;95685.13;4991257;28;20471;-55
2021/12/31 04:08:28;;;;;;;7.10;6.40;;;6.60;95.40;;;6.41;66.46;95670.19;4990902;28;20457;-54
2021/12/31 04:10:55;;;;;;;9.30;6.30;;;6.60;95.50;;;6.42;66.54;95677.91;4991069;28;20470;-61
2021/12/31 04:13:23;;;;;;;11.97;7.23;;;6.60;95.40;;;6.43;66.36;95671.78;4991224;28;20875;-57
2021/12/31 04:15:50;;;;;;;8.93;6.47;;;6.60;95.30;;;6.44;66.61;95683.06;4990371;28;20545;-62
2021/12/31 04:18:18;;;;;;;6.23;5.53;;;6.60;95.30;;;6.42;66.43;95672.69;4987342;28;20446;-60
2021/12/31 04:20:49;;;;;;;8.07;6.30;;;6.60;95.30;;;6.40;66.58;95666.72;4991198;28;20484;-61
2021/12/31 04:23:27;;;;;;;8.13;6.60;;;6.60;95.20;;;6.39;66.07;95665.03;4990173;28;21090;-62
2021/12/31 04:25:55;;;;;;;5.40;4.90;;;6.60;95.10;;;6.38;65.91;95668.63;4989633;28;21001;-55
2021/12/31 04:28:22;;;;;;;7.70;6.17;;;6.60;95.00;;;6.35;65.99;95666.19;4990582;28;20510;-56
2021/12/31 04:30:50;;;;;;;7.67;6.60;;;6.60;95.00;;;6.36;65.92;95678.28;4990779;28;20489;-54
2021/12/31 04:33:17;;;;;;;8.20;5.67;;;6.50;95.00;;;6.35;65.92;95681.88;4989537;28;20458;-62
2021/12/31 04:35:46;;;;;;;5.60;5.00;;;6.60;95.00;;;6.34;66.14;95680.19;4990515;28;20477;-55
2021/12/31 04:38:13;;;;;;;6.00;5.30;;;6.50;95.00;;;6.33;66.45;95681.09;4990721;28;20450;-61
2021/12/31 04:40:41;;;;;;;10.07;6.23;;;6.50;95.00;;;6.32;66.16;95684.66;4990175;28;20565;-61
2021/12/31 04:43:08;;;;;;;7.10;6.00;;;6.50;95.10;;;6.31;66.02;95680.38;4989074;28;20454;-62
2021/12/31 04:45:36;;;;;;;8.57;6.17;;;6.50;94.90;;;6.30;66.33;95681.28;4990717;28;20475;-55
2021/12/31 04:48:03;;;;;;;5.70;4.77;;;6.50;95.00;;;6.30;66.47;95689.13;4990491;28;20459;-55
2021/12/31 04:50:31;;;;;;;6.97;5.73;;;6.50;95.10;;;6.31;66.59;95688.19;4990541;28;20480;-61
2021/12/31 04:52:59;;;;;;;6.33;5.50;;;6.50;95.20;;;6.33;66.16;95681.09;4988619;28;20454;-61
2021/12/31 04:55:27;;;;;;;6.93;5.20;;;6.50;95.10;;;6.33;66.75;95686.31;4989703;28;20493;-61
2021/12/31 04:57:54;;;;;;;7.10;5.83;;;6.50;95.20;;;6.35;65.99;95687.09;4989833;28;20632;-61
2021/12/31 05:00:22;;;;;;;5.50;5.00;;;6.60;95.20;;;6.35;66.56;95684.47;4990001;28;20898;-55
2021/12/31 05:02:49;;;;;;;8.07;5.50;;;6.50;95.10;;;6.33;66.11;95686.31;4985939;28;20477;-55
2021/12/31 05:05:16;;;;;;;5.87;5.10;;;6.50;95.10;;;6.33;66.06;95688.94;4989706;28;20497;-61
2021/12/31 05:07:43;;;;;;;5.93;5.37;;;6.50;95.00;;;6.31;66.52;95685.59;4985994;28;20922;-63
2021/12/31 05:10:14;;;;;;;6.20;5.43;;;6.50;95.00;;;6.29;66.45;95692.69;4989256;28;20474;-61
2021/12/31 05:12:41;;;;;;;5.10;4.60;;;6.50;94.90;;;6.27;66.02;95689.31;4985094;28;20545;-56
2021/12/31 05:15:10;;;;;;;7.37;6.03;;;6.50;95.00;;;6.25;66.79;95686.78;4989678;28;20552;-55
2021/12/31 05:17:38;;;;;;;5.83;5.30;;;6.50;95.00;;;6.24;65.95;95695.56;4988069;28;20462;-60
2021/12/31 05:20:07;;;;;;;6.13;5.00;;;6.40;94.90;;;6.24;66.09;95692.09;4989841;28;20474;-61
2021/12/31 05:22:35;;;;;;;7.47;4.67;;;6.40;94.90;;;6.20;65.83;95696.69;4987025;28;20462;-56
2021/12/31 05:25:02;;;;;;;5.80;5.20;;;6.40;95.10;;;6.20;66.53;95688.03;4989549;28;20490;-61
2021/12/31 05:27:31;;;;;;;5.70;5.07;;;6.40;94.90;;;6.19;66.19;95692.38;4990153;28;20462;-62
2021/12/31 05:29:58;;;;;;;6.43;5.13;;;6.40;95.00;;;6.20;66.72;95693.25;4989581;28;20471;-62
2021/12/31 05:32:25;;;;;;;6.00;5.10;;;6.40;95.10;;;6.21;66.27;95687.94;4987944;28;20485;-56
2021/12/31 05:34:53;;;;;;;8.57;5.50;;;6.40;95.00;;;6.21;66.29;95687.06;4989345;28;20553;-57
2021/12/31 05:37:20;;;;;;;7.07;5.37;;;6.40;95.00;;;6.21;65.96;95697.50;4988960;28;20839;-61
2021/12/31 05:39:47;;;;;;;6.60;5.67;;;6.40;95.00;;;6.20;65.86;95695.84;4989867;28;20485;-62
2021/12/31 05:42:15;;;;;;;8.30;5.50;;;6.40;94.90;;;6.18;66.34;95695.09;4989160;28;20462;-62
2021/12/31 05:44:44;;;;;;;8.40;6.27;;;6.40;94.90;;;6.18;66.33;95700.31;4988488;28;20497;-54
2021/12/31 05:47:12;;;;;;;6.77;5.27;;;6.40;94.80;;;6.17;66.04;95696.03;4989241;28;20451;-56
2021/12/31 05:49:39;;;;;;;8.43;6.80;;;6.40;95.20;;;6.14;65.99;95698.84;4989835;28;20458;-55
2021/12/31 05:52:07;;;;;;;12.43;7.23;;;6.40;95.20;;;6.12;66.27;95704.16;4988015;28;20454;-56
2021/12/31 05:54:35;;;;;;;11.53;8.60;;;6.30;94.80;;;6.12;66.13;95711.13;4987177;28;20805;-55
2021/12/31 05:57:02;;;;;;;11.73;7.90;;;6.30;94.80;;;6.08;66.37;95711.31;4989532;28;20466;-63
2021/12/31 05:59:30;;;;;;;11.50;8.10;;;6.30;94.80;;;6.05;66.22;95708.88;4988107;28;20459;-56
2021/12/31 06:01:58;;;;;;;9.60;6.40;;;6.20;94.70;;;6.01;66.16;95719.59;4988100;28;20465;-64
2021/12/31 06:04:26;;;;;;;7.43;6.50;;;6.20;94.80;;;5.99;65.94;95714.47;4987801;28;20498;-62
2021/12/31 06:06:53;;;;;;;8.13;6.53;;;6.20;94.90;;;5.99;66.17;95724.09;4986749;28;20868;-62
2021/12/31 06:09:21;;;;;;;7.77;6.03;;;6.20;95.00;;;6.00;66.19;95724.00;4986403;28;20446;-63
2021/12/31 06:11:48;;;;;;;8.00;6.60;;;6.20;95.10;;;6.03;66.64;95715.97;4988434;28;20464;-55
2021/12/31 06:14:15;;;;;;;6.77;5.97;;;6.20;95.10;;;6.06;66.09;95715.78;4992605;28;20556;-57
2021/12/31 06:16:45;;;;;;;8.10;6.33;;;6.20;95.00;;;6.09;66.64;95713.00;4993444;28;20998;-55
2021/12/31 06:19:14;;;;;;;8.37;6.30;;;6.20;95.00;;;6.13;66.67;95716.25;4994757;28;20546;-63
2021/12/31 06:21:43;;;;;;;7.60;6.77;;;6.30;95.00;;;6.16;66.34;95720.47;4992654;28;20863;-62
2021/12/31 06:24:11;;;;;;;9.47;7.50;;;6.40;95.40;;;6.22;65.97;95722.72;4992278;28;20497;-62
2021/12/31 06:26:38;;;;;;;11.30;7.37;;;6.40;95.00;;;6.25;66.37;95727.75;4991712;28;20474;-63
2021/12/31 06:29:05;;;;;;;10.47;8.17;;;6.40;94.90;;;6.29;65.99;95729.25;4992573;28;20457;-63
2021/12/31 06:31:33;;;;;;;10.10;8.00;;;6.40;94.80;;;6.32;65.97;95731.69;4991911;28;20478;-55
2021/12/31 06:34:00;;;;;;;11.40;7.93;;;6.50;94.80;;;6.36;66.00;95727.09;4992971;28;20883;-54
2021/12/31 06:36:29;;;;;;;15.40;9.90;;;6.50;94.70;;;6.37;65.22;95732.25;4992673;28;20479;-54
2021/12/31 06:38:57;;;;;;;15.00;10.57;;;6.50;94.60;;;6.40;65.51;95739.06;4992400;28;20483;-63
2021/12/31 06:41:25;;;;;;;19.27;13.43;;;6.50;94.60;;;6.42;65.71;95735.41;4992394;28;20470;-63
2021/12/31 06:43:52;;;;;;;16.37;11.30;;;6.60;94.40;;;6.45;65.74;95742.22;4993010;28;20856;-54
2021/12/31 06:46:20;;;;;;;15.90;11.50;;;6.60;94.50;;;6.46;65.11;95736.09;4992822;28;20475;-57
2021/12/31 06:48:47;;;;;;;16.40;10.67;;;6.60;94.40;;;6.53;65.88;95747.00;4992380;28;20458;-62
2021/12/31 06:51:15;;;;;;;13.20;9.50;;;6.70;94.50;;;6.57;65.43;95749.31;4993387;28;20482;-61
2021/12/31 06:53:43;;;;;;;11.80;8.03;;;6.70;94.40;;;6.62;64.90;95743.81;4992100;28;20458;-61
2021/12/31 06:56:11;;;;;;;8.40;7.43;;;6.80;94.30;;;6.67;65.02;95743.53;4992093;28;20466;-62
2021/12/31 06:58:38;;;;;;;9.20;7.03;;;6.80;94.20;;;6.72;64.56;95742.28;4992843;28;20839;-56
2021/12/31 07:01:05;;;;;;;8.90;6.87;;;6.80;94.30;;;6.77;64.58;95742.88;4991843;28;20533;-63
2021/12/31 07:03:33;;;;;;;12.00;7.07;;;6.90;94.20;;;6.83;65.28;95749.47;4992124;28;20451;-54
2021/12/31 07:06:00;;;;;;;11.70;7.70;;;7.00;94.30;;;6.89;64.46;95748.28;4991806;28;20470;-61
2021/12/31 07:08:27;;;;;;;7.57;5.90;;;7.00;94.10;;;6.93;64.44;95744.53;4991897;28;20454;-58
2021/12/31 07:10:56;;;;;;;10.17;7.00;;;7.10;93.70;;;6.97;64.60;95741.63;4992248;28;20915;-62
2021/12/31 07:13:24;;;;;;;10.87;8.33;;;7.10;93.70;;;7.04;64.93;95744.69;4992028;28;20458;-55
2021/12/31 07:15:51;;;;;;;13.90;6.13;;;7.20;93.80;;;7.09;64.66;95742.63;4991619;28;20490;-60
2021/12/31 07:18:19;;;;;;;8.00;6.37;;;7.20;93.80;;;7.13;64.03;95746.72;4991593;28;20454;-62
2021/12/31 07:20:46;;;;;;;7.67;6.40;;;7.30;93.80;;;7.16;63.89;95741.31;4992152;28;20485;-61
2021/12/31 07:23:15;;;;;;;11.67;7.10;;;7.30;93.70;;;7.22;63.68;95742.69;4992610;28;20835;-60
2021/12/31 07:25:42;;;;;;;10.13;6.03;;;7.30;93.70;;;7.28;63.69;95741.44;4990968;28;20521;-61
2021/12/31 07:28:12;;;;;;;14.10;8.10;;;7.40;93.60;;;7.33;63.44;95740.22;4991286;28;20570;-62
2021/12/31 07:30:40;;;;;;;9.20;7.07;;;7.50;93.50;;;7.40;63.66;95742.44;4991396;28;20891;-68
2021/12/31 07:33:14;;;;;;;10.80;6.70;;;7.50;93.40;;;7.43;63.17;95731.78;4990629;28;20982;-57
2021/12/31 07:35:41;;;;;;;11.87;7.30;;;7.50;92.90;;;7.41;63.58;95737.13;4991132;28;20513;-57
2021/12/31 07:38:11;;;;;;;8.60;6.57;;;7.60;93.10;;;7.42;63.21;95730.09;4988557;28;20469;-56
2021/12/31 07:40:41;;;;;;;8.80;6.50;;;7.60;92.90;;;7.44;63.53;95729.06;4989609;28;20502;-62
2021/12/31 07:43:10;;;;;;;10.83;7.50;;;7.60;93.30;;;7.48;63.93;95733.19;4990606;28;20660;-57
2021/12/31 07:45:38;;;;;;;15.00;7.17;;;7.60;93.30;;;7.54;63.46;95740.63;4989166;28;20493;-62
2021/12/31 07:48:06;;;;;;;9.27;7.83;;;7.70;93.20;;;7.60;63.24;95743.78;4985906;28;20455;-63
2021/12/31 07:50:33;;;;;;;9.00;6.60;;;7.70;93.20;;;7.64;63.71;95740.03;4990083;28;20481;-56
2021/12/31 07:53:01;;;;;;;10.50;6.03;;;7.80;93.20;;;7.69;63.82;95746.63;4988444;28;20459;-62
2021/12/31 07:55:28;;;;;;;13.33;6.30;;;7.80;93.40;;;7.75;63.69;95748.03;4985830;28;20481;-62
2021/12/31 07:57:56;;;;;;;8.80;6.60;;;7.90;93.20;;;7.86;63.44;95750.75;4986676;28;20459;-60
2021/12/31 08:00:24;;;;;;;8.43;6.53;;;8.00;93.40;;;8.04;63.42;95748.72;4988778;28;20490;-56
2021/12/31 08:02:55;;;;;;;9.27;6.73;;;8.10;93.50;;;8.22;63.24;95757.09;4988005;28;20455;-57
2021/12/31 08:05:22;;;;;;;8.63;6.70;;;8.30;93.30;;;8.39;62.77;95760.38;4988931;28;21034;-59
2021/12/31 08:07:50;;;;;;;20.57;6.87;;;8.40;93.00;;;8.53;62.85;95752.41;4985624;28;20467;-57
2021/12/31 08:10:17;;;;;;;6.93;6.17;;;8.60;93.00;;;8.68;62.67;95760.19;4990701;28;20487;-61
2021/12/31 08:12:44;;;;;;;11.80;7.13;;;8.70;92.90;;;8.79;62.68;95762.91;4989903;28;20808;-57
2021/12/31 08:15:12;;;;;;;12.20;8.70;;;8.80;93.10;;;8.87;62.80;95757.94;4991621;28;20475;-57
2021/12/31 08:17:41;;;;;;;8.60;6.90;;;8.90;93.00;;;9.00;62.93;95757.09;4993367;28;20481;-61
2021/12/31 08:20:09;;;;;;;8.20;6.53;;;9.00;93.30;;;9.12;61.89;95759.72;4991541;28;20478;-59
2021/12/31 08:22:37;;;;;;;7.93;6.13;;;9.20;92.70;;;9.27;61.99;95757.75;4992032;28;20490;-58
2021/12/31 08:25:07;;;;;;;8.10;5.73;;;9.30;92.50;;;9.40;61.19;95764.75;4991484;28;20564;-59
2021/12/31 08:27:34;;;;;;;6.37;5.20;;;9.40;92.00;;;9.51;61.71;95756.94;4989994;28;20459;-58
2021/12/31 08:30:01;;;;;;;10.87;6.70;;;9.60;92.30;;;9.66;61.03;95757.63;4989072;28;20474;-57
2021/12/31 08:32:29;;;;;;;6.40;5.47;;;9.70;92.00;;;9.93;58.91;95746.88;4989959;28;20531;-56
2021/12/31 08:34:57;;;;;;;10.07;6.37;;;10.00;90.10;;;10.40;58.69;95744.25;4991604;28;20482;-61
2021/12/31 08:37:25;;;;;;;6.33;5.70;;;10.40;89.30;;;11.05;58.39;95744.53;4990063;28;20450;-60
2021/12/31 08:39:52;;;;;;;8.80;6.13;;;10.90;89.80;;;11.87;57.08;95738.81;4988847;28;20978;-57
2021/12/31 08:42:20;;;;;;;7.37;6.67;;;11.60;89.10;;;12.76;55.62;95737.59;4989922;28;20474;-60
2021/12/31 08:44:47;;;;;;;7.23;5.63;;;12.40;87.40;;;13.62;52.15;95736.22;4991920;28;21006;-57
2021/12/31 08:47:15;;;;;;;6.67;6.00;;;13.20;81.20;;;14.39;49.11;95728.44;4989399;28;20829;-57
2021/12/31 08:49:43;;;;;;;6.30;5.60;;;14.00;75.60;;;15.10;50.76;95737.69;4990869;28;20466;-58
2021/12/31 08:52:12;;;;;;;7.83;6.63;;;14.70;78.10;;;15.78;49.25;95728.56;4990429;28;20459;-58
2021/12/31 08:54:40;;;;;;;11.77;6.50;;;15.40;74.90;;;16.33;46.61;95729.34;4989504;28;21026;-63
2021/12/31 08:57:08;;;;;;;6.27;5.73;;;15.90;69.80;;;16.79;47.12;95725.53;4994725;28;20459;-62
2021/12/31 08:59:35;;;;;;;7.00;6.10;;;16.40;69.50;;;17.18;44.96;95725.09;4988073;28;20490;-63
2021/12/31 09:02:03;;;;;;;7.93;7.20;;;16.80;65.50;;;17.43;41.74;95727.84;4987095;28;20586;-57
2021/12/31 09:04:30;;;;;;;9.13;6.40;;;17.10;59.10;;;17.64;44.51;95723.91;4988129;28;20463;-56
2021/12/31 09:06:58;;;;;;;11.10;6.40;;;17.40;62.00;;;17.86;44.61;95712.66;4990643;28;20459;-62
2021/12/31 09:09:27;;;;;;;5.90;5.37;;;17.50;62.30;;;18.17;43.56;95704.06;4988995;28;20865;-62
2021/12/31 09:11:56;;;;;;;7.27;6.00;;;17.80;60.20;;;18.53;42.52;95700.19;4990790;28;20457;-57
2021/12/31 09:14:23;;;;;;;8.23;6.87;;;18.20;58.40;;;18.86;38.81;95701.00;4988133;28;20900;-62
2021/12/31 09:16:51;;;;;;;7.70;6.90;;;18.40;54.40;;;19.09;40.40;95701.09;4991559;28;20497;-63
2021/12/31 09:19:19;;;;;;;10.20;6.97;;;18.60;54.90;;;19.18;42.24;95709.91;4990168;28;20461;-56
2021/12/31 09:21:46;;;;;;;8.57;6.90;;;18.90;57.20;;;19.15;41.65;95697.72;4988572;28;20450;-59
2021/12/31 09:24:14;;;;;;;8.40;7.60;;;18.90;56.30;;;19.19;38.88;95695.53;4989551;28;20455;-57
2021/12/31 09:26:42;;;;;;;8.37;7.37;;;19.00;53.20;;;19.35;41.81;95705.34;4990777;28;20577;-61
2021/12/31 09:29:10;;;;;;;12.07;7.67;;;19.10;56.20;;;19.51;38.16;95699.06;4992695;28;20880;-61
2021/12/31 09:31:37;;;;;;;11.90;8.10;;;19.20;51.60;;;19.62;41.28;95706.69;4986574;28;21036;-61
2021/12/31 09:34:05;;;;;;;11.63;9.20;;;19.40;55.40;;;19.72;40.92;95695.81;4989471;28;20576;-58
2021/12/31 09:36:32;;;;;;;11.03;7.73;;;19.30;55.40;;;19.48;41.00;95691.41;4988313;28;20582;-63
2021/12/31 09:39:00;;;;;;;11.33;7.63;;;19.20;54.90;;;19.01;40.42;95686.94;4988822;28;20481;-56
2021/12/31 09:41:27;;;;;;;14.27;6.97;;;19.00;53.80;;;18.33;40.89;95702.41;4990183;28;20881;-57
2021/12/31 09:43:56;;;;;;;10.10;6.60;;;18.40;53.20;;;17.66;41.99;95698.81;4989742;28;20454;-59
2021/12/31 09:46:23;;;;;;;7.33;6.47;;;17.80;54.40;;;17.12;44.09;95693.84;4989554;28;20494;-63
2021/12/31 09:48:51;;;;;;;6.50;5.90;;;17.30;56.60;;;16.70;44.00;95683.97;4993466;28;20966;-63
2021/12/31 09:51:18;;;;;;;8.77;7.10;;;16.80;57.30;;;16.34;45.04;95684.06;4991039;28;20540;-65
2021/12/31 09:53:46;;;;;;;9.63;7.30;;;16.40;58.80;;;16.08;46.04;95681.38;4993958;28;20459;-58
2021/12/31 09:56:14;;;;;;;8.97;6.40;;;16.10;59.90;;;16.15;46.12;95677.13;4993181;28;21030;-64
2021/12/31 09:58:42;;;;;;;11.10;7.70;;;16.10;60.40;;;16.52;47.03;95675.25;4992483;28;21005;-59
2021/12/31 10:01:10;;;;;;;6.83;6.13;;;16.20;62.70;;;16.83;45.94;95668.41;4989370;28;20486;-64
2021/12/31 10:03:38;;;;;;;7.00;6.30;;;16.50;62.30;;;16.98;46.12;95666.03;4990710;28;20517;-58
2021/12/31 10:06:08;;;;;;;7.40;6.63;;;16.70;62.40;;;17.03;45.61;95662.91;4993605;28;20490;-56
2021/12/31 10:08:42;;;;;;;8.23;6.73;;;16.70;61.10;;;16.74;43.92;95660.56;4992090;28;20474;-62
2021/12/31 10:11:11;;;;;;;7.57;6.77;;;16.60;57.80;;;16.33;46.61;95655.88;4990224;28;21232;-65
2021/12/31 10:13:42;;;;;;;9.40;7.13;;;16.20;61.90;;;15.99;47.55;95647.81;4993848;28;20583;-58
2021/12/31 10:16:25;;;;;;;8.60;7.00;;;16.00;62.90;;;15.60;47.72;95649.78;4988455;28;20502;-64
2021/12/31 10:19:06;;;;;;;10.00;6.70;;;15.60;62.90;;;15.21;48.31;95649.22;4993079;28;20565;-65
2021/12/31 10:21:41;;;;;;;9.23;7.80;;;15.20;63.80;;;14.76;47.07;95650.03;4992458;28;20501;-65
2021/12/31 10:24:23;;;;;;;35.13;12.57;;;14.90;61.30;;;14.26;50.00;95637.91;4994504;28;20527;-58
2021/12/31 10:26:51;;;;;;;17.80;8.30;;;14.40;66.70;;;13.92;51.08;95639.22;4988478;28;20490;-58
2021/12/31 10:29:18;;;;;;;12.37;7.00;;;14.00;68.20;;;13.63;50.21;95632.19;4992919;28;20487;-58
2021/12/31 10:31:51;;;;;;;11.70;6.93;;;13.70;66.80;;;13.38;51.75;95635.34;4994273;28;20480;-63